Warning: Javascript must be enabled to use all the features on this page!


Page Loading - Please Wait...

Click to hideNews Bulletins

Peak Streamflow for the Nation

USGS 05540250 EAST BRANCH DU PAGE RIVER AT BOLINGBROOK, IL

Will County, Illinois
Hydrologic Unit Code 07120004
Latitude  41°43'05", Longitude  88°04'14" NAD83
Drainage area 75.8  square miles
Gage datum 625.28 feet above NGVD29
Output formats
Table
Graph
Tab-separated file
peakfq (watstore) format
Reselect output format
Water
Year
Date Gage
Height
(feet)
Stream-
flow
(cfs)
1989 1989-06-01 18.23 497C
1990 1990-05-10 22.67 1,990C
1991 1990-11-28 20.64 1,070C
1992 1992-09-10 19.13 615C
1993 1993-06-09 20.71 1,100C
1994 1994-02-20 20.37 945C
1995 1995-01-14 20.04 858C
1996 1996-07-18 23.75 3,980C
1997 1997-02-22 22.55 1,910C
1998 1998-05-08 20.61 1,090C
1999 1999-01-24 20.94 1,200C
2000 2000-04-21 20.16 938C
2001 2001-02-09 20.56 1,070C
2002 2001-10-14 22.13 1,680C
2003 2003-05-09 19.39 668C
2004 2004-08-28 20.32 989C
2005 2005-01-13 21.42 1,380C
2006 2006-06-26 19.16 573C
2007 2006-10-03 21.60 1,460C
2008 2008-09-14 24.01 2,410C
2009 2008-12-28 23.35 2,140C
2010 2010-07-25 22.27 1,700C
2011 2011-06-09 22.24 1,630C
2012 2012-08-27 19.28 668C
2013 2013-04-18 25.51 5,070C
2014 2014-08-22 21.17 1,100C
2015 2015-06-16 21.90 1,300C
2016 2016-07-30 21.00 1,050C
2017 2017-05-01 21.89 1,380C
2018 2018-02-21 21.502 1,950C
2019 2019-05-01 21.52 1,920C
2020 2020-05-18 22.32 2,870C
2021 2021-06-27 19.11 935C
?
  Peak Gage-Height Qualification Codes.
?
  Peak Streamflow Qualification Codes.